Time;durP1;ratioP1;P1;durP2;ratioP2;P2;SDS_P1;SDS_P2;PMS_P1;PMS_P2;Temp;Humidity;BMP_temperature;BMP_pressure;BME280_temperature;BME280_humidity;BME280_pressure;Samples;Min_cycle;Max_cycle;Signal;HPM_P1;HPM_P2
2021/12/10 00:00:30;;;;;;;10.50;9.80;;;4.30;99.90;;;;;;5029729;28;20171;-65
2021/12/10 00:02:56;;;;;;;10.83;9.80;;;4.30;99.90;;;;;;5036816;28;20175;-66
2021/12/10 00:05:28;;;;;;;11.10;10.07;;;4.30;99.90;;;;;;5054283;28;20167;-66
2021/12/10 00:07:55;;;;;;;10.30;9.50;;;4.30;99.90;;;;;;5052352;28;20236;-66
2021/12/10 00:10:27;;;;;;;11.33;10.33;;;4.30;99.90;;;;;;5016331;28;20187;-64
2021/12/10 00:12:53;;;;;;;11.53;10.43;;;4.30;99.90;;;;;;5035269;28;20175;-65
2021/12/10 00:15:25;;;;;;;10.63;9.73;;;4.30;99.90;;;;;;5034232;28;20187;-64
2021/12/10 00:17:52;;;;;;;9.93;9.13;;;4.20;99.90;;;;;;5036730;28;20264;-66
2021/12/10 00:20:20;;;;;;;11.50;10.60;;;4.20;99.90;;;;;;5053860;28;20179;-66
2021/12/10 00:22:56;;;;;;;10.10;9.20;;;4.20;99.90;;;;;;5051964;28;20175;-66
2021/12/10 00:25:34;;;;;;;10.30;9.17;;;4.10;99.90;;;;;;5034078;28;20556;-65
2021/12/10 00:28:01;;;;;;;9.57;8.83;;;3.90;99.90;;;;;;5018608;28;20203;-65
2021/12/10 00:30:32;;;;;;;12.30;10.10;;;3.80;99.90;;;;;;5053727;28;20260;-66
2021/12/10 00:33:20;;;;;;;10.63;9.77;;;3.70;99.90;;;;;;5033702;28;20678;-66
2021/12/10 00:35:47;;;;;;;10.43;9.60;;;3.60;99.90;;;;;;5016116;28;20183;-66
2021/12/10 00:38:14;;;;;;;9.67;8.93;;;3.50;99.90;;;;;;5033426;28;20592;-66
2021/12/10 00:40:40;;;;;;;9.57;9.03;;;3.40;99.90;;;;;;5033865;28;20179;-65
2021/12/10 00:43:07;;;;;;;11.53;10.40;;;3.30;99.90;;;;;;5044471;28;20175;-65
2021/12/10 00:45:33;;;;;;;12.13;11.33;;;3.20;99.90;;;;;;5053641;28;20171;-65
2021/12/10 00:47:59;;;;;;;12.63;11.80;;;3.20;99.90;;;;;;5043752;28;20246;-65
2021/12/10 00:50:31;;;;;;;12.20;11.50;;;3.10;99.90;;;;;;5033554;28;20544;-65
2021/12/10 00:52:57;;;;;;;12.07;11.13;;;3.10;99.90;;;;;;5023911;28;20179;-64
2021/12/10 00:55:24;;;;;;;13.60;12.47;;;3.00;99.90;;;;;;5053339;28;20253;-64
2021/12/10 00:57:51;;;;;;;14.10;13.07;;;2.90;99.90;;;;;;5046147;28;20195;-64
2021/12/10 01:00:21;;;;;;;13.10;12.13;;;2.90;99.90;;;;;;5033063;28;20198;-65
2021/12/10 01:02:49;;;;;;;12.50;11.80;;;2.80;99.90;;;;;;5038725;28;20167;-64
2021/12/10 01:05:16;;;;;;;12.20;11.53;;;2.80;99.90;;;;;;5053437;28;20274;-67
2021/12/10 01:07:43;;;;;;;10.70;10.10;;;2.80;99.90;;;;;;5040821;28;20233;-65
2021/12/10 01:10:14;;;;;;;10.30;9.57;;;2.80;99.90;;;;;;5033068;28;20553;-65
2021/12/10 01:12:44;;;;;;;12.00;11.10;;;2.80;99.90;;;;;;5043989;28;20175;-65
2021/12/10 01:27:01;;;;;;;13.80;13.00;;;2.70;99.90;;;;;;5053063;28;20240;-65
2021/12/10 01:28:59;;;;;;;13.43;12.67;;;2.70;99.90;;;;;;5009004;28;20247;-65
2021/12/10 01:31:25;;;;;;;13.27;12.37;;;2.70;99.90;;;;;;5012979;28;20180;-65
2021/12/10 01:33:53;;;;;;;13.63;12.70;;;2.70;99.90;;;;;;5015760;28;20218;-66
2021/12/10 01:36:20;;;;;;;11.57;10.53;;;2.70;99.90;;;;;;5032653;28;20175;-65
2021/12/10 01:38:48;;;;;;;10.80;9.83;;;2.80;99.90;;;;;;5047307;28;20214;-65
2021/12/10 01:41:17;;;;;;;10.20;9.53;;;2.80;99.90;;;;;;5032485;28;20200;-64
2021/12/10 01:43:44;;;;;;;11.47;10.47;;;2.90;99.90;;;;;;5044110;28;20644;-65
2021/12/10 01:46:14;;;;;;;12.33;10.40;;;2.90;99.90;;;;;;5032402;28;20175;-67
2021/12/10 01:48:47;;;;;;;10.90;9.77;;;3.00;99.90;;;;;;5043850;28;20281;-65
2021/12/10 01:51:15;;;;;;;10.93;10.17;;;3.10;99.90;;;;;;5034384;28;20236;-65
2021/12/10 01:53:43;;;;;;;11.33;10.33;;;3.20;99.90;;;;;;5040541;28;20258;-65
2021/12/10 01:56:13;;;;;;;10.10;9.30;;;3.30;99.90;;;;;;5032260;28;20183;-64
2021/12/10 01:58:39;;;;;;;10.00;9.30;;;3.40;99.90;;;;;;5042409;28;20229;-64
2021/12/10 02:01:17;;;;;;;9.83;9.13;;;3.40;99.90;;;;;;5025428;28;20657;-64
2021/12/10 02:03:44;;;;;;;10.37;9.60;;;3.30;99.90;;;;;;5021744;28;20206;-65
2021/12/10 02:06:10;;;;;;;11.07;10.07;;;3.20;99.90;;;;;;5051855;28;20660;-65
2021/12/10 02:08:37;;;;;;;9.93;9.07;;;3.10;99.90;;;;;;5045338;28;20211;-65
2021/12/10 02:11:04;;;;;;;9.47;8.87;;;3.10;99.90;;;;;;5031935;28;20171;-65
2021/12/10 02:13:30;;;;;;;9.53;8.83;;;3.00;99.90;;;;;;5036487;28;20174;-64
2021/12/10 02:15:55;;;;;;;10.07;9.43;;;3.00;99.90;;;;;;5052088;28;20266;-64
2021/12/10 02:18:21;;;;;;;10.77;9.93;;;3.00;99.90;;;;;;5048052;28;20290;-65
2021/12/10 02:21:02;;;;;;;10.37;9.70;;;3.00;99.90;;;;;;5014216;28;20670;-64
2021/12/10 02:23:32;;;;;;;10.63;9.90;;;3.00;99.90;;;;;;5034946;28;20173;-64
2021/12/10 02:26:01;;;;;;;10.83;10.20;;;3.00;99.90;;;;;;5050042;28;20229;-65
2021/12/10 02:28:27;;;;;;;10.53;9.83;;;3.00;99.90;;;;;;5048582;28;20187;-66
2021/12/10 02:30:54;;;;;;;11.67;10.93;;;2.90;99.90;;;;;;5031856;28;20623;-64
2021/12/10 02:33:20;;;;;;;11.30;10.43;;;2.90;99.90;;;;;;5032525;28;20191;-65
2021/12/10 02:35:46;;;;;;;11.80;11.03;;;2.90;99.90;;;;;;5033123;28;20225;-65
2021/12/10 02:38:15;;;;;;;12.70;11.67;;;2.90;99.90;;;;;;5039885;22;20207;-64
2021/12/10 02:40:41;;;;;;;12.87;12.00;;;2.90;99.90;;;;;;5051666;28;20541;-64
2021/12/10 02:43:10;;;;;;;12.23;11.53;;;2.90;99.90;;;;;;5050897;28;20257;-65
2021/12/10 02:45:37;;;;;;;12.33;11.47;;;2.90;99.90;;;;;;5051639;28;20167;-65
2021/12/10 02:48:03;;;;;;;14.03;13.03;;;2.90;99.90;;;;;;5052450;28;20292;-65
2021/12/10 02:50:31;;;;;;;15.27;14.30;;;2.90;99.90;;;;;;5071347;28;20223;-65
2021/12/10 02:52:57;;;;;;;16.53;15.13;;;2.90;99.90;;;;;;5054263;28;20204;-65
2021/12/10 02:55:23;;;;;;;14.33;13.57;;;2.90;99.90;;;;;;5051425;28;20179;-64
2021/12/10 02:57:54;;;;;;;12.37;11.57;;;2.90;99.90;;;;;;5052587;28;20197;-65
2021/12/10 03:00:27;;;;;;;10.37;9.67;;;2.90;99.90;;;;;;5052054;28;20182;-66
2021/12/10 03:02:53;;;;;;;9.83;9.23;;;3.00;99.90;;;;;;5070098;28;20539;-64
2021/12/10 03:05:19;;;;;;;9.47;8.67;;;3.00;99.90;;;;;;5075920;28;20171;-65
2021/12/10 03:07:45;;;;;;;8.93;8.47;;;3.00;99.90;;;;;;5061736;28;20258;-65
2021/12/10 03:10:16;;;;;;;8.20;7.90;;;3.00;99.90;;;;;;5055188;28;20292;-66
2021/12/10 03:12:43;;;;;;;9.17;8.57;;;3.00;99.90;;;;;;5067149;28;20174;-65
2021/12/10 03:15:10;;;;;;;9.43;8.93;;;3.00;99.90;;;;;;5075268;28;20256;-66
2021/12/10 03:17:36;;;;;;;10.20;9.60;;;3.00;99.90;;;;;;5063959;28;20183;-65
2021/12/10 03:20:07;;;;;;;9.30;8.63;;;3.00;99.90;;;;;;5055056;28;20588;-66
2021/12/10 03:22:34;;;;;;;8.23;7.83;;;3.00;99.90;;;;;;5064483;28;20177;-65
2021/12/10 03:25:00;;;;;;;8.20;7.73;;;2.90;99.90;;;;;;5067140;28;20174;-65
2021/12/10 03:27:26;;;;;;;8.33;7.73;;;2.90;99.90;;;;;;5054977;28;20167;-65
2021/12/10 03:29:54;;;;;;;8.30;7.83;;;2.90;99.90;;;;;;5060596;28;20612;-64
2021/12/10 03:32:24;;;;;;;8.70;8.03;;;2.90;99.90;;;;;;5074457;28;20794;-66
2021/12/10 03:34:50;;;;;;;8.27;7.87;;;2.90;99.90;;;;;;5069524;28;20173;-65
2021/12/10 03:37:18;;;;;;;8.27;7.50;;;2.90;99.90;;;;;;5054744;28;20179;-64
2021/12/10 03:39:46;;;;;;;8.23;7.83;;;2.90;99.90;;;;;;5056797;28;20296;-65
2021/12/10 03:42:12;;;;;;;8.30;7.90;;;2.90;99.90;;;;;;5074500;28;20220;-65
2021/12/10 03:44:38;;;;;;;8.53;7.87;;;2.90;99.90;;;;;;5071857;28;20187;-65
2021/12/10 03:47:06;;;;;;;8.90;8.20;;;3.00;99.90;;;;;;5054411;28;20171;-65
2021/12/10 03:49:32;;;;;;;8.73;8.23;;;3.00;99.90;;;;;;5054616;28;20199;-65
2021/12/10 03:51:58;;;;;;;8.90;8.40;;;3.00;99.90;;;;;;5074298;28;20167;-65
2021/12/10 03:54:24;;;;;;;8.13;7.73;;;3.00;99.90;;;;;;5073888;28;20163;-65
2021/12/10 03:56:50;;;;;;;8.43;7.80;;;3.10;99.90;;;;;;5054783;28;20644;-64
2021/12/10 03:59:18;;;;;;;8.47;7.90;;;3.10;99.90;;;;;;5053557;28;20217;-65
2021/12/10 04:01:47;;;;;;;9.50;8.70;;;3.20;99.90;;;;;;5072691;28;20186;-64
2021/12/10 04:04:19;;;;;;;8.23;7.77;;;3.20;99.90;;;;;;5059416;28;20202;-64
2021/12/10 04:06:45;;;;;;;8.93;8.47;;;3.30;99.90;;;;;;5074259;28;20163;-64
2021/12/10 04:09:11;;;;;;;8.63;8.17;;;3.30;99.90;;;;;;5058626;28;20256;-63
2021/12/10 04:11:38;;;;;;;8.27;7.67;;;3.40;99.90;;;;;;5052453;28;20682;-65
2021/12/10 04:14:05;;;;;;;8.50;7.77;;;3.50;99.90;;;;;;5067234;28;20227;-66
2021/12/10 04:16:32;;;;;;;8.00;7.40;;;3.50;99.90;;;;;;5073213;28;20254;-65
2021/12/10 04:19:00;;;;;;;7.57;7.17;;;3.50;99.90;;;;;;5061249;28;20749;-66
2021/12/10 04:21:27;;;;;;;7.10;6.70;;;3.50;99.90;;;;;;5054055;28;20163;-66
2021/12/10 04:23:53;;;;;;;7.80;7.07;;;3.60;99.90;;;;;;5064653;28;20184;-65
2021/12/10 04:26:21;;;;;;;8.43;7.70;;;3.60;99.90;;;;;;5073395;28;20170;-66
2021/12/10 04:28:47;;;;;;;7.90;7.30;;;3.60;99.90;;;;;;5062677;28;20198;-64
2021/12/10 04:31:13;;;;;;;7.50;6.93;;;3.70;99.90;;;;;;5053496;28;20170;-65
2021/12/10 04:33:39;;;;;;;8.03;7.63;;;3.70;99.90;;;;;;5061491;28;20205;-65
2021/12/10 04:36:07;;;;;;;8.03;7.03;;;3.70;99.90;;;;;;5073722;28;20163;-65
2021/12/10 04:38:34;;;;;;;7.60;7.20;;;3.70;99.90;;;;;;5066770;28;20210;-64
2021/12/10 04:41:04;;;;;;;8.33;7.73;;;3.60;99.90;;;;;;5053707;28;20167;-64
2021/12/10 04:43:32;;;;;;;8.10;7.70;;;3.60;99.90;;;;;;5058886;28;20260;-65
2021/12/10 04:45:59;;;;;;;9.43;9.03;;;3.60;99.90;;;;;;5073709;28;20223;-65
2021/12/10 04:48:26;;;;;;;10.97;10.27;;;3.60;99.90;;;;;;5068689;28;20234;-66
2021/12/10 04:50:52;;;;;;;10.07;9.53;;;3.50;99.90;;;;;;5053539;28;20534;-65
2021/12/10 04:53:18;;;;;;;11.47;10.73;;;3.50;99.90;;;;;;5055897;28;20185;-67
2021/12/10 04:55:45;;;;;;;10.43;9.83;;;3.50;99.90;;;;;;5073206;28;20171;-66
2021/12/10 04:58:11;;;;;;;10.03;9.43;;;3.40;99.90;;;;;;5071187;28;20229;-67
2021/12/10 05:00:43;;;;;;;10.80;10.20;;;3.30;99.90;;;;;;5052939;28;20170;-66
2021/12/10 05:03:09;;;;;;;9.47;9.03;;;3.30;99.90;;;;;;5072390;28;20717;-67
2021/12/10 05:05:36;;;;;;;10.43;9.73;;;3.20;99.90;;;;;;5073100;28;20224;-67
2021/12/10 05:08:04;;;;;;;10.80;10.23;;;3.20;99.90;;;;;;5054466;28;20182;-67
2021/12/10 05:10:30;;;;;;;11.73;11.23;;;3.10;99.90;;;;;;5052913;28;20175;-66
2021/12/10 05:12:56;;;;;;;12.40;11.60;;;3.10;99.90;;;;;;5069162;28;20640;-66
2021/12/10 05:15:24;;;;;;;10.50;10.03;;;3.10;99.90;;;;;;5072804;28;20170;-66
2021/12/10 05:17:51;;;;;;;10.30;9.70;;;3.10;99.90;;;;;;5057113;28;20253;-67
2021/12/10 05:20:23;;;;;;;10.83;10.07;;;3.10;99.90;;;;;;5052849;28;20187;-67
2021/12/10 05:22:49;;;;;;;9.63;9.10;;;3.00;99.90;;;;;;5066827;28;20610;-67
2021/12/10 05:25:16;;;;;;;9.57;9.07;;;3.00;99.90;;;;;;5072711;28;20190;-67
2021/12/10 05:27:42;;;;;;;9.43;8.90;;;3.00;99.90;;;;;;5059265;28;20207;-67
2021/12/10 05:30:11;;;;;;;9.23;8.60;;;2.90;99.90;;;;;;5064018;28;20201;-65
2021/12/10 05:32:37;;;;;;;9.07;8.57;;;2.90;99.90;;;;;;5072266;28;20170;-67
2021/12/10 05:35:04;;;;;;;8.43;7.70;;;2.90;99.90;;;;;;5061689;28;20258;-65
2021/12/10 05:37:30;;;;;;;9.00;8.43;;;2.90;99.90;;;;;;5051281;28;20175;-65
2021/12/10 05:39:55;;;;;;;9.43;8.90;;;2.90;99.90;;;;;;5061083;28;20209;-65
2021/12/10 05:42:21;;;;;;;11.97;11.17;;;2.90;99.90;;;;;;5072219;28;20194;-64
2021/12/10 05:44:47;;;;;;;12.87;11.93;;;2.80;99.90;;;;;;5068290;28;20174;-65
2021/12/10 05:47:12;;;;;;;12.87;12.07;;;2.80;99.90;;;;;;5052048;28;20174;-66
2021/12/10 05:49:38;;;;;;;12.63;11.93;;;2.80;99.90;;;;;;5052373;28;20652;-66
2021/12/10 05:52:06;;;;;;;15.73;14.40;;;2.80;99.90;;;;;;5056159;28;20210;-67
2021/12/10 05:54:32;;;;;;;13.93;13.23;;;2.80;99.90;;;;;;5072057;28;20170;-65
2021/12/10 05:56:57;;;;;;;14.77;13.87;;;2.80;99.90;;;;;;5068910;28;20186;-64
2021/12/10 05:59:23;;;;;;;15.37;14.53;;;2.80;99.90;;;;;;5051789;28;20210;-66
2021/12/10 06:01:49;;;;;;;14.83;13.90;;;2.80;99.90;;;;;;5053061;28;20561;-65
2021/12/10 06:04:16;;;;;;;14.63;13.93;;;2.80;99.90;;;;;;5071535;28;20170;-65
2021/12/10 06:06:42;;;;;;;14.03;13.23;;;2.80;99.90;;;;;;5071576;28;20257;-65
2021/12/10 06:09:09;;;;;;;13.70;13.00;;;2.80;99.90;;;;;;5051910;28;20281;-67
2021/12/10 06:11:36;;;;;;;13.97;13.23;;;2.80;99.90;;;;;;5052042;28;20258;-66
2021/12/10 06:14:03;;;;;;;14.57;13.47;;;2.80;99.90;;;;;;5069858;28;20182;-66
2021/12/10 06:16:29;;;;;;;13.20;12.60;;;2.80;99.90;;;;;;5071805;28;20165;-66
2021/12/10 06:18:55;;;;;;;15.10;14.13;;;2.80;99.90;;;;;;5054661;28;20664;-67
2021/12/10 06:21:21;;;;;;;13.83;13.03;;;2.70;99.90;;;;;;5050517;28;20175;-67
2021/12/10 06:23:49;;;;;;;13.80;12.90;;;2.70;99.90;;;;;;5066696;28;20600;-67
2021/12/10 06:26:16;;;;;;;14.20;13.13;;;2.70;99.90;;;;;;5058513;28;20232;-67
2021/12/10 06:28:44;;;;;;;14.50;13.43;;;2.70;99.90;;;;;;5051049;28;20206;-66
2021/12/10 06:31:13;;;;;;;14.10;13.30;;;2.70;99.90;;;;;;5063236;28;20227;-66
2021/12/10 06:33:38;;;;;;;12.83;12.07;;;2.70;99.90;;;;;;5071506;28;20303;-67
2021/12/10 06:36:06;;;;;;;13.57;12.77;;;2.70;99.90;;;;;;5060344;28;20235;-67
2021/12/10 06:38:34;;;;;;;13.83;12.60;;;2.60;99.90;;;;;;5051083;28;20210;-67
2021/12/10 06:40:59;;;;;;;11.93;11.30;;;2.60;99.90;;;;;;5058997;28;20170;-67
2021/12/10 06:43:25;;;;;;;12.67;11.43;;;2.60;99.90;;;;;;5051268;28;20169;-67
2021/12/10 06:45:52;;;;;;;11.90;11.17;;;2.60;99.90;;;;;;5058814;28;20340;-67
2021/12/10 06:48:20;;;;;;;12.80;11.80;;;2.60;99.90;;;;;;5071490;28;20200;-67
2021/12/10 06:50:54;;;;;;;11.70;11.13;;;2.60;99.90;;;;;;5064945;28;20269;-68
2021/12/10 06:53:22;;;;;;;12.23;11.50;;;2.60;99.90;;;;;;5057010;28;20178;-67
2021/12/10 06:55:48;;;;;;;12.77;11.87;;;2.60;99.90;;;;;;5071761;28;20170;-66
2021/12/10 06:58:15;;;;;;;12.87;11.90;;;2.60;99.90;;;;;;5066686;28;20624;-67
2021/12/10 07:00:50;;;;;;;12.60;11.83;;;2.60;99.90;;;;;;5051734;28;20171;-66
2021/12/10 07:03:20;;;;;;;12.50;11.70;;;2.60;99.90;;;;;;5054940;28;20177;-67
2021/12/10 07:05:47;;;;;;;11.33;10.73;;;2.60;99.90;;;;;;5071650;28;20174;-67
2021/12/10 07:08:13;;;;;;;11.23;10.57;;;2.60;99.90;;;;;;5068136;28;20190;-66
2021/12/10 07:10:39;;;;;;;11.27;10.57;;;2.60;99.90;;;;;;5049836;28;20616;-67
2021/12/10 07:13:06;;;;;;;13.13;11.87;;;2.60;99.90;;;;;;5052164;28;20175;-67
2021/12/10 07:15:37;;;;;;;12.40;11.80;;;2.70;99.90;;;;;;5071523;28;20724;-67
2021/12/10 07:18:03;;;;;;;12.00;11.30;;;2.70;99.90;;;;;;5070195;28;20259;-67
2021/12/10 07:20:29;;;;;;;12.50;11.80;;;2.80;99.90;;;;;;5051331;28;20531;-66
2021/12/10 07:22:55;;;;;;;13.10;12.10;;;2.80;99.90;;;;;;5069158;28;20178;-66
2021/12/10 07:25:21;;;;;;;12.73;12.03;;;2.80;99.90;;;;;;5071926;28;20170;-67
2021/12/10 07:27:48;;;;;;;13.97;12.80;;;2.80;99.90;;;;;;5054926;28;20179;-67
2021/12/10 07:30:16;;;;;;;13.23;12.43;;;2.80;99.90;;;;;;5050217;28;20209;-67
2021/12/10 07:32:41;;;;;;;12.23;11.20;;;2.90;99.90;;;;;;5066579;28;20268;-66
2021/12/10 07:35:08;;;;;;;11.90;11.00;;;2.90;99.90;;;;;;5071297;28;20737;-67
2021/12/10 07:37:35;;;;;;;10.27;9.47;;;3.00;99.90;;;;;;5057202;28;20171;-67
2021/12/10 07:40:02;;;;;;;8.17;7.57;;;3.00;99.90;;;;;;5051141;28;20293;-67
2021/12/10 07:42:28;;;;;;;8.37;7.97;;;3.10;99.90;;;;;;5063029;28;20182;-65
2021/12/10 07:44:56;;;;;;;8.73;8.03;;;3.20;99.90;;;;;;5071570;28;20162;-66
2021/12/10 07:47:23;;;;;;;9.07;8.67;;;3.30;99.90;;;;;;5062895;28;20179;-67
2021/12/10 07:49:49;;;;;;;10.20;8.77;;;3.40;99.90;;;;;;5062882;28;20196;-67
2021/12/10 07:52:21;;;;;;;8.63;7.93;;;3.40;99.90;;;;;;5074154;28;20261;-67
2021/12/10 07:54:47;;;;;;;7.50;7.10;;;3.50;99.90;;;;;;5066373;28;20171;-67
2021/12/10 07:57:16;;;;;;;7.27;6.90;;;3.60;99.90;;;;;;5054314;28;20182;-67
2021/12/10 07:59:42;;;;;;;7.10;6.63;;;3.60;99.90;;;;;;5060608;28;20614;-67
2021/12/10 08:02:08;;;;;;;9.23;7.30;;;3.60;99.90;;;;;;5069300;28;20542;-65
2021/12/10 08:04:34;;;;;;;7.47;6.90;;;3.70;99.90;;;;;;5054605;28;20174;-66
2021/12/10 08:06:59;;;;;;;7.47;6.97;;;3.70;99.90;;;;;;5055589;28;20276;-66
2021/12/10 08:09:25;;;;;;;7.27;6.87;;;3.80;99.90;;;;;;5074033;28;20194;-67
2021/12/10 08:11:51;;;;;;;9.20;8.30;;;3.80;99.90;;;;;;5073788;28;20512;-66
2021/12/10 08:14:17;;;;;;;7.53;6.93;;;3.80;99.90;;;;;;5053592;28;20182;-66
2021/12/10 08:16:43;;;;;;;7.40;7.00;;;3.80;99.90;;;;;;5054052;28;20206;-66
2021/12/10 08:19:12;;;;;;;7.30;6.90;;;3.80;99.90;;;;;;5072797;28;20577;-66
2021/12/10 08:21:39;;;;;;;7.77;6.87;;;3.90;99.90;;;;;;5074118;28;20186;-67
2021/12/10 08:24:05;;;;;;;7.47;6.93;;;3.90;99.90;;;;;;5072113;28;20178;-65
2021/12/10 08:26:31;;;;;;;7.73;7.27;;;4.00;99.90;;;;;;5074209;28;20193;-66
2021/12/10 08:28:56;;;;;;;9.90;7.30;;;4.00;99.90;;;;;;5057066;28;20203;-67
2021/12/10 08:31:22;;;;;;;7.73;7.30;;;4.00;99.90;;;;;;5054111;28;20174;-67
2021/12/10 08:33:49;;;;;;;7.70;6.83;;;4.10;99.90;;;;;;5068378;28;20196;-66
2021/12/10 08:36:17;;;;;;;9.67;9.17;;;4.10;99.90;;;;;;5073735;28;20185;-67
2021/12/10 08:38:43;;;;;;;8.07;7.37;;;4.10;99.90;;;;;;5072550;22;20316;-65
2021/12/10 08:41:24;;;;;;;9.40;7.90;;;4.10;99.90;;;;;;4993124;28;20242;-67
2021/12/10 08:43:50;;;;;;;8.37;7.60;;;4.10;99.90;;;;;;5006425;28;20179;-65
2021/12/10 08:46:17;;;;;;;7.73;7.13;;;4.20;99.90;;;;;;5001343;28;20184;-65
2021/12/10 08:48:44;;;;;;;6.80;6.50;;;4.20;99.90;;;;;;4997089;28;20278;-65
2021/12/10 08:51:20;;;;;;;10.10;7.53;;;4.20;99.90;;;;;;5021959;28;20175;-66
2021/12/10 08:53:46;;;;;;;9.10;7.60;;;4.20;99.90;;;;;;5032166;28;20175;-65
2021/12/10 08:56:11;;;;;;;8.37;7.63;;;4.20;99.90;;;;;;5022363;28;20227;-64
2021/12/10 08:58:39;;;;;;;8.03;6.90;;;4.20;99.90;;;;;;5011531;28;20231;-65
2021/12/10 09:01:20;;;;;;;8.63;8.03;;;4.20;99.90;;;;;;5020238;28;20207;-66
2021/12/10 09:03:50;;;;;;;8.47;7.87;;;4.20;99.90;;;;;;5032383;28;20539;-65
2021/12/10 09:06:18;;;;;;;8.73;7.70;;;4.20;99.90;;;;;;5029140;28;20194;-65
2021/12/10 09:08:44;;;;;;;8.40;7.80;;;4.30;99.90;;;;;;5031972;28;20282;-65
2021/12/10 09:11:11;;;;;;;9.57;7.50;;;4.20;99.90;;;;;;5024078;28;20267;-64
2021/12/10 09:13:37;;;;;;;8.47;7.87;;;4.30;99.90;;;;;;5015269;28;20271;-63
2021/12/10 09:16:07;;;;;;;9.67;9.07;;;4.30;99.90;;;;;;5016770;28;20171;-64
2021/12/10 09:18:38;;;;;;;8.37;7.83;;;4.30;99.90;;;;;;5017741;28;20222;-65
2021/12/10 09:21:06;;;;;;;9.07;8.23;;;4.30;99.90;;;;;;5015038;28;20258;-64
2021/12/10 09:23:32;;;;;;;8.23;7.73;;;4.30;99.90;;;;;;4992361;28;20260;-64
2021/12/10 09:26:03;;;;;;;11.60;8.53;;;4.30;99.90;;;;;;5002229;28;20386;-64
2021/12/10 09:28:30;;;;;;;8.50;7.77;;;4.30;99.90;;;;;;5001438;28;20263;-64
2021/12/10 09:30:58;;;;;;;9.13;8.23;;;4.30;99.90;;;;;;4992318;28;20173;-65
2021/12/10 09:33:24;;;;;;;8.40;7.80;;;4.30;99.90;;;;;;5008765;28;20580;-65
2021/12/10 09:35:50;;;;;;;8.90;8.30;;;4.30;99.90;;;;;;5012108;28;20231;-64
2021/12/10 09:41:00;;;;;;;9.07;8.17;;;4.40;99.90;;;;;;5088835;28;20564;-66
2021/12/10 09:43:26;;;;;;;13.70;8.57;;;4.40;99.90;;;;;;5088736;28;20180;-63
2021/12/10 09:45:52;;;;;;;10.37;8.13;;;4.40;99.90;;;;;;5089026;28;20540;-64
2021/12/10 09:48:20;;;;;;;8.93;8.23;;;4.40;99.90;;;;;;5087148;28;20174;-65
2021/12/10 09:50:54;;;;;;;10.03;8.00;;;4.50;99.90;;;;;;5068602;28;20228;-65
2021/12/10 09:53:20;;;;;;;8.57;8.00;;;4.50;99.90;;;;;;5067579;28;20261;-65
2021/12/10 09:55:47;;;;;;;8.73;7.93;;;4.60;99.90;;;;;;5068399;28;20189;-65
2021/12/10 09:58:15;;;;;;;8.37;7.83;;;4.60;99.90;;;;;;5068587;28;20265;-65
2021/12/10 10:00:52;;;;;;;8.37;7.97;;;4.60;99.90;;;;;;5068366;28;20208;-65
2021/12/10 10:03:22;;;;;;;9.43;8.53;;;4.70;99.90;;;;;;5068302;28;20166;-65
2021/12/10 10:05:48;;;;;;;9.13;8.33;;;4.70;99.90;;;;;;5068519;28;20174;-65
2021/12/10 10:08:18;;;;;;;9.53;8.87;;;4.70;99.90;;;;;;5068163;28;20201;-65
2021/12/10 10:10:50;;;;;;;7.80;7.20;;;4.80;99.90;;;;;;5068409;28;20538;-65
2021/12/10 10:13:21;;;;;;;7.73;7.33;;;4.80;99.90;;;;;;5068016;28;20540;-65
2021/12/10 10:15:48;;;;;;;7.93;7.43;;;4.70;99.90;;;;;;5068379;28;20219;-65
2021/12/10 10:18:16;;;;;;;7.67;7.23;;;4.70;99.90;;;;;;5067159;28;20171;-65
2021/12/10 10:20:45;;;;;;;7.60;7.10;;;4.70;99.90;;;;;;5062156;28;20202;-65
2021/12/10 10:23:12;;;;;;;8.97;7.90;;;4.70;99.90;;;;;;5046861;28;20529;-65
2021/12/10 10:25:42;;;;;;;8.00;7.60;;;4.80;99.90;;;;;;5048044;28;20520;-65
2021/12/10 10:28:11;;;;;;;7.70;7.20;;;4.80;99.90;;;;;;5048038;28;20175;-65
2021/12/10 10:30:52;;;;;;;7.43;6.90;;;4.80;99.90;;;;;;5048186;28;20198;-65
2021/12/10 10:33:19;;;;;;;8.33;7.70;;;4.80;99.90;;;;;;5047673;28;20510;-65
2021/12/10 10:35:49;;;;;;;8.13;7.63;;;4.90;99.90;;;;;;5048324;28;20683;-65
2021/12/10 10:38:16;;;;;;;8.10;7.70;;;4.90;99.90;;;;;;5047716;28;20177;-65
2021/12/10 10:40:46;;;;;;;8.60;7.83;;;5.00;99.90;;;;;;5047697;28;20711;-65
2021/12/10 10:43:13;;;;;;;8.00;7.20;;;5.00;99.90;;;;;;5047593;28;20198;-65
2021/12/10 10:45:42;;;;;;;8.17;7.47;;;5.10;99.90;;;;;;5046941;28;20528;-64
2021/12/10 10:48:11;;;;;;;7.50;7.10;;;5.10;99.90;;;;;;5047636;28;20582;-64
2021/12/10 10:50:51;;;;;;;7.87;7.37;;;5.10;99.90;;;;;;5043390;28;20278;-65
2021/12/10 10:53:20;;;;;;;9.10;8.20;;;5.10;99.90;;;;;;5033987;28;20237;-64
2021/12/10 10:55:58;;;;;;;8.33;7.63;;;5.20;99.90;;;;;;5034317;28;20171;-64
2021/12/10 10:58:30;;;;;;;8.43;7.63;;;5.20;99.90;;;;;;5034257;28;20180;-64
2021/12/10 11:01:08;;;;;;;8.00;7.20;;;5.30;99.90;;;;;;5034163;28;20174;-64
2021/12/10 11:03:42;;;;;;;8.67;7.97;;;5.30;99.90;;;;;;5034202;28;20170;-65
2021/12/10 11:06:24;;;;;;;8.13;7.60;;;5.30;99.90;;;;;;5034249;28;20659;-64
2021/12/10 11:08:53;;;;;;;7.97;7.33;;;5.30;99.90;;;;;;5033871;28;20191;-64
2021/12/10 11:11:34;;;;;;;8.40;7.60;;;5.40;99.90;;;;;;5034011;28;20175;-64
2021/12/10 11:14:07;;;;;;;8.50;7.77;;;5.40;99.90;;;;;;5033825;28;20191;-64
2021/12/10 11:16:36;;;;;;;8.33;7.80;;;5.40;99.90;;;;;;5034094;28;20190;-64
2021/12/10 11:19:12;;;;;;;9.93;8.13;;;5.40;99.90;;;;;;5033488;28;20195;-64
2021/12/10 11:21:50;;;;;;;12.20;7.23;;;5.40;99.90;;;;;;5032730;28;20198;-64
2021/12/10 11:24:23;;;;;;;7.23;6.70;;;5.40;99.90;;;;;;5033578;28;20267;-64
2021/12/10 11:27:04;;;;;;;7.03;6.63;;;5.40;99.90;;;;;;5033826;28;20168;-64
2021/12/10 11:29:48;;;;;;;7.30;6.73;;;5.40;99.90;;;;;;5033696;28;20195;-64
2021/12/10 11:32:27;;;;;;;7.97;7.23;;;5.50;99.90;;;;;;5032621;28;20632;-64
2021/12/10 11:35:25;;;;;;;7.20;6.70;;;5.40;99.90;;;;;;5033580;28;20171;-64
2021/12/10 11:38:14;;;;;;;7.80;7.27;;;5.40;99.90;;;;;;5033661;28;20569;-64
2021/12/10 11:40:49;;;;;;;7.73;7.23;;;5.50;99.90;;;;;;5033276;28;20207;-64
2021/12/10 11:46:30;;;;;;;7.10;6.70;;;5.50;99.90;;;;;;5033649;28;20171;-64
2021/12/10 11:49:10;;;;;;;8.10;7.33;;;5.50;99.90;;;;;;5030942;28;20211;-64
2021/12/10 11:51:49;;;;;;;7.70;7.20;;;5.60;99.90;;;;;;5033321;28;20201;-64
2021/12/10 11:54:22;;;;;;;7.83;7.43;;;5.60;99.90;;;;;;5031614;28;20192;-64
2021/12/10 11:57:01;;;;;;;7.73;7.20;;;5.60;99.90;;;;;;5033118;28;20660;-64
2021/12/10 11:59:31;;;;;;;7.40;6.93;;;5.50;99.90;;;;;;5033154;28;20207;-64
2021/12/10 12:02:08;;;;;;;7.57;7.13;;;5.60;99.90;;;;;;5032434;28;20751;-64
2021/12/10 12:04:47;;;;;;;7.73;7.13;;;5.60;99.90;;;;;;5039475;28;20171;-64
2021/12/10 12:07:41;;;;;;;6.87;6.57;;;5.60;99.90;;;;;;5052997;28;20201;-65
2021/12/10 12:10:06;;;;;;;7.20;6.70;;;5.60;99.90;;;;;;5049823;28;20306;-65
2021/12/10 12:12:46;;;;;;;8.00;7.20;;;5.60;99.90;;;;;;5032547;28;20254;-64
2021/12/10 12:15:21;;;;;;;7.87;6.70;;;5.60;99.90;;;;;;5031424;28;20171;-64
2021/12/10 12:17:53;;;;;;;7.40;6.80;;;5.70;99.90;;;;;;5033163;28;20179;-64
2021/12/10 12:20:46;;;;;;;8.20;7.60;;;5.60;99.90;;;;;;5032399;28;20195;-64
2021/12/10 12:26:22;;;;;;;7.00;6.70;;;5.60;99.90;;;;;;5052428;28;20178;-64
2021/12/10 12:28:52;;;;;;;7.70;7.10;;;5.50;99.90;;;;;;5052281;28;20315;-64
2021/12/10 12:31:30;;;;;;;7.20;6.80;;;5.40;99.90;;;;;;5051158;28;20247;-64
2021/12/10 12:34:26;;;;;;;7.97;7.30;;;5.50;99.90;;;;;;5052086;28;20620;-65
2021/12/10 12:36:55;;;;;;;8.13;7.30;;;5.50;99.90;;;;;;5051860;28;20468;-65
2021/12/10 12:39:32;;;;;;;7.57;7.10;;;5.50;99.90;;;;;;5051815;28;20242;-64
2021/12/10 12:42:02;;;;;;;7.33;6.83;;;5.40;99.90;;;;;;5052197;28;20695;-64
2021/12/10 12:44:40;;;;;;;8.00;7.20;;;5.40;99.90;;;;;;5052100;28;20175;-64
2021/12/10 12:47:41;;;;;;;7.80;7.00;;;5.40;99.90;;;;;;5052069;28;20216;-65
2021/12/10 12:50:12;;;;;;;8.10;7.40;;;5.30;99.90;;;;;;5049642;28;20199;-64
2021/12/10 12:52:40;;;;;;;7.17;6.60;;;5.30;99.90;;;;;;5051356;28;20195;-64
2021/12/10 12:55:41;;;;;;;7.30;6.73;;;5.20;99.90;;;;;;5050418;28;20853;-65
2021/12/10 12:58:09;;;;;;;7.50;7.10;;;5.20;99.90;;;;;;5049470;28;20181;-64
2021/12/10 13:00:57;;;;;;;7.73;7.23;;;5.10;99.90;;;;;;5034925;28;20626;-65
2021/12/10 13:03:43;;;;;;;9.20;7.53;;;5.10;99.90;;;;;;5031836;28;20179;-63
2021/12/10 13:06:10;;;;;;;6.87;6.47;;;5.10;99.90;;;;;;5031697;28;20171;-63
2021/12/10 13:08:38;;;;;;;8.27;7.60;;;5.10;99.90;;;;;;5031749;28;20195;-64
2021/12/10 13:11:16;;;;;;;7.70;7.20;;;5.00;99.90;;;;;;5031482;28;20599;-64
2021/12/10 13:13:52;;;;;;;7.87;7.37;;;5.00;99.90;;;;;;5031530;28;20179;-66
2021/12/10 13:16:40;;;;;;;7.97;7.20;;;4.90;99.90;;;;;;5054529;28;20479;-66
2021/12/10 13:19:08;;;;;;;7.20;6.80;;;4.80;99.90;;;;;;5071121;28;20198;-64
2021/12/10 13:21:34;;;;;;;9.00;7.90;;;4.80;99.90;;;;;;5071418;28;20170;-67